EBB weather

Entebbe International Airport
Kampala, Kampala District, Uganda

Public forecast

Using degrees Celsius for public forecast. Weather courtesy of forecast.io.

METAR (pilot weather report)

Retrieved 2019/05/24 15:00 UTC (6 minutes ago):

HUEN 241500Z 21010KT 9999 FEW022 FEW024CB 24/19 Q1017

TAF (pilot weather forecast)

Retrieved 2019/05/24 12:00 UTC (3 hours ago):

TAF HUEN 241100Z 2412/2518 17010KT 9000 RA SCT021 FEW023 BKN130 BECMG 2420/2424 36007KT TS FEW091 FEW021CB SCT110 TEMPO 2501/2506 VRB14KT 7000 -TSRA BKN017 FEW09CB OVC090